Time;durP1;ratioP1;P1;durP2;ratioP2;P2;SDS_P1;SDS_P2;PMS_P1;PMS_P2;Temp;Humidity;BMP_temperature;BMP_pressure;BME280_temperature;BME280_humidity;BME280_pressure;Samples;Min_cycle;Max_cycle;Signal;HPM_P1;HPM_P2
2021/08/07 00:01:24;;;;;;;2.90;2.60;;;19.40;99.90;;;;;;6301800;28;20485;-65
2021/08/07 00:04:28;;;;;;;3.10;2.20;;;19.30;99.90;;;;;;6301426;28;21007;-65
2021/08/07 00:07:33;;;;;;;2.70;2.50;;;19.20;99.90;;;;;;6301540;28;20452;-65
2021/08/07 00:10:36;;;;;;;2.37;2.03;;;19.20;99.90;;;;;;6300933;28;20523;-65
2021/08/07 00:13:39;;;;;;;2.03;1.83;;;19.20;99.90;;;;;;6302013;28;20478;-65
2021/08/07 00:16:44;;;;;;;2.23;1.97;;;19.20;99.90;;;;;;6300712;28;20559;-65
2021/08/07 00:19:47;;;;;;;3.47;1.67;;;19.10;99.90;;;;;;6301519;28;20465;-65
2021/08/07 00:22:50;;;;;;;2.17;2.00;;;19.10;99.90;;;;;;6300921;28;20476;-65
2021/08/07 00:25:53;;;;;;;1.90;1.80;;;19.00;99.90;;;;;;6300651;28;20690;-65
2021/08/07 00:28:57;;;;;;;3.43;1.80;;;18.90;99.90;;;;;;6301117;28;20473;-65
2021/08/07 00:32:02;;;;;;;2.30;2.07;;;18.90;99.90;;;;;;6300837;28;20484;-65
2021/08/07 00:35:07;;;;;;;2.20;2.00;;;18.90;99.90;;;;;;6300773;28;20984;-65
2021/08/07 00:38:10;;;;;;;2.83;2.10;;;19.00;99.90;;;;;;6300182;28;20563;-65
2021/08/07 00:41:13;;;;;;;2.20;1.93;;;19.00;99.90;;;;;;6300466;28;20466;-65
2021/08/07 00:44:16;;;;;;;2.57;2.00;;;19.00;99.90;;;;;;6299592;28;20469;-65
2021/08/07 00:47:21;;;;;;;3.17;1.97;;;19.00;99.90;;;;;;6300484;28;20480;-65
2021/08/07 00:50:24;;;;;;;3.97;2.40;;;19.00;99.90;;;;;;6300134;28;20470;-65
2021/08/07 00:53:28;;;;;;;2.40;1.97;;;18.90;99.90;;;;;;6300301;28;20484;-65
2021/08/07 00:56:31;;;;;;;2.30;1.80;;;18.90;99.90;;;;;;6299874;28;20783;-65
2021/08/07 00:59:34;;;;;;;1.70;1.60;;;18.90;99.90;;;;;;6300277;28;20477;-65
2021/08/07 01:02:41;;;;;;;1.93;1.73;;;18.80;99.90;;;;;;6299725;28;20469;-65
2021/08/07 01:05:49;;;;;;;2.70;1.80;;;18.80;99.90;;;;;;6300035;28;20575;-65
2021/08/07 01:09:07;;;;;;;2.30;1.73;;;18.80;99.90;;;;;;6299690;28;20969;-65
2021/08/07 01:12:19;;;;;;;2.53;2.33;;;18.70;99.90;;;;;;6300239;28;20462;-65
2021/08/07 01:15:26;;;;;;;2.80;1.87;;;18.60;99.90;;;;;;6299222;28;21091;-65
2021/08/07 01:18:33;;;;;;;2.00;1.40;;;18.60;99.90;;;;;;6300079;28;20473;-65
2021/08/07 01:21:40;;;;;;;1.63;1.53;;;18.60;99.90;;;;;;6299225;28;20485;-65
2021/08/07 01:24:50;;;;;;;2.10;1.90;;;18.50;99.90;;;;;;6299551;28;20492;-65
2021/08/07 01:27:55;;;;;;;2.30;1.90;;;18.60;99.90;;;;;;6299124;28;20469;-65
2021/08/07 01:30:58;;;;;;;3.17;1.70;;;18.50;99.90;;;;;;6299489;28;20473;-65
2021/08/07 01:34:02;;;;;;;1.93;1.40;;;18.50;99.90;;;;;;6298996;28;20481;-65
2021/08/07 01:37:05;;;;;;;2.00;1.90;;;18.40;99.90;;;;;;6299252;28;20599;-65
2021/08/07 01:40:10;;;;;;;1.80;1.57;;;18.30;99.90;;;;;;6299522;28;20484;-65
2021/08/07 01:43:15;;;;;;;4.07;1.87;;;18.30;99.90;;;;;;6299094;28;20482;-65
2021/08/07 01:46:19;;;;;;;4.47;2.17;;;18.20;99.90;;;;;;6299336;28;20480;-65
2021/08/07 01:49:30;;;;;;;2.43;1.80;;;18.10;99.90;;;;;;6299005;28;20539;-65
2021/08/07 01:52:38;;;;;;;1.90;1.80;;;18.10;99.90;;;;;;6299478;28;20417;-65
2021/08/07 01:55:51;;;;;;;2.10;1.47;;;18.10;99.90;;;;;;6299116;28;20458;-65
2021/08/07 01:58:59;;;;;;;2.20;1.50;;;18.00;99.90;;;;;;6299208;28;20469;-65
2021/08/07 02:02:04;;;;;;;1.63;1.53;;;18.00;99.90;;;;;;6299113;28;20469;-65
2021/08/07 02:05:08;;;;;;;1.90;1.77;;;18.00;99.90;;;;;;6298995;28;20969;-65
2021/08/07 02:08:13;;;;;;;4.40;1.70;;;18.00;99.90;;;;;;6298863;28;20460;-65
2021/08/07 02:11:17;;;;;;;4.70;1.60;;;18.00;99.90;;;;;;6299068;28;20469;-65
2021/08/07 02:14:23;;;;;;;1.70;1.60;;;18.00;99.90;;;;;;6298582;28;20481;-66
2021/08/07 02:17:27;;;;;;;3.03;2.00;;;17.90;99.90;;;;;;6299456;28;20470;-65
2021/08/07 02:20:31;;;;;;;2.03;1.60;;;18.00;99.90;;;;;;6298909;28;20476;-65
2021/08/07 02:23:34;;;;;;;1.83;1.73;;;17.90;99.90;;;;;;6298723;28;20469;-65
2021/08/07 02:26:39;;;;;;;2.17;1.30;;;17.90;99.90;;;;;;6298744;28;20469;-65
2021/08/07 02:29:44;;;;;;;3.23;1.60;;;17.90;99.90;;;;;;6298854;28;20519;-65
2021/08/07 02:32:48;;;;;;;1.93;1.83;;;17.90;99.90;;;;;;6298800;28;20468;-65
2021/08/07 02:35:53;;;;;;;2.63;1.67;;;17.90;99.90;;;;;;6298583;28;20468;-65
2021/08/07 02:38:58;;;;;;;1.90;1.77;;;17.80;99.90;;;;;;6298550;28;20476;-65
2021/08/07 02:42:02;;;;;;;2.30;1.50;;;17.80;99.90;;;;;;6298895;28;20477;-65
2021/08/07 02:45:08;;;;;;;1.50;1.40;;;17.80;99.90;;;;;;6298263;28;20566;-66
2021/08/07 02:48:12;;;;;;;2.43;1.73;;;17.80;99.90;;;;;;6298532;28;20483;-65
2021/08/07 02:51:15;;;;;;;2.20;1.73;;;17.80;99.90;;;;;;6298148;28;20934;-65
2021/08/07 02:54:19;;;;;;;2.83;1.37;;;17.70;99.90;;;;;;6298201;28;20500;-65
2021/08/07 02:57:23;;;;;;;3.80;1.60;;;17.70;99.90;;;;;;6298455;28;20469;-65
2021/08/07 03:00:27;;;;;;;2.40;1.87;;;17.80;99.90;;;;;;6298517;28;20469;-65
2021/08/07 03:03:31;;;;;;;2.00;1.80;;;17.70;99.90;;;;;;6298261;28;20480;-65
2021/08/07 03:06:34;;;;;;;2.33;1.60;;;17.70;99.90;;;;;;6300843;28;20992;-65
2021/08/07 03:09:37;;;;;;;2.57;2.00;;;17.70;99.90;;;;;;6302842;28;20576;-65
2021/08/07 03:12:42;;;;;;;3.73;1.97;;;17.60;99.90;;;;;;6302618;28;20480;-66
2021/08/07 03:15:47;;;;;;;3.40;1.83;;;17.60;99.90;;;;;;6302540;28;20849;-65
2021/08/07 03:18:50;;;;;;;2.90;1.70;;;17.60;99.90;;;;;;6303256;28;20472;-65
2021/08/07 03:21:53;;;;;;;1.80;1.70;;;17.50;99.90;;;;;;6302581;28;20469;-66
2021/08/07 03:24:56;;;;;;;2.17;1.60;;;17.50;99.90;;;;;;6302000;28;20477;-65
2021/08/07 03:28:01;;;;;;;2.27;2.07;;;17.50;99.90;;;;;;6302634;28;20807;-65
2021/08/07 03:31:06;;;;;;;1.40;1.30;;;17.50;99.90;;;;;;6302412;28;20469;-66
2021/08/07 03:34:09;;;;;;;2.63;2.17;;;17.40;99.90;;;;;;6302371;28;20992;-65
2021/08/07 03:37:13;;;;;;;2.80;2.57;;;17.40;99.90;;;;;;6302089;28;20476;-65
2021/08/07 03:40:16;;;;;;;4.87;2.50;;;17.40;99.90;;;;;;6301813;28;20473;-65
2021/08/07 03:43:19;;;;;;;2.43;2.00;;;17.40;99.90;;;;;;6302193;28;20500;-65
2021/08/07 03:46:24;;;;;;;2.50;1.90;;;17.40;99.90;;;;;;6301542;28;20453;-65
2021/08/07 03:49:27;;;;;;;3.20;2.17;;;17.40;99.90;;;;;;6292659;28;20442;-66
2021/08/07 03:52:31;;;;;;;2.20;1.87;;;17.30;99.90;;;;;;6301332;28;20442;-65
2021/08/07 03:55:34;;;;;;;3.63;1.93;;;17.30;99.90;;;;;;6301808;28;20469;-65
2021/08/07 03:58:37;;;;;;;2.23;2.00;;;17.30;99.90;;;;;;6301314;28;20445;-62
2021/08/07 04:01:41;;;;;;;2.30;2.10;;;17.30;99.90;;;;;;6301509;28;20898;-61
2021/08/07 04:04:45;;;;;;;2.40;2.20;;;17.30;99.90;;;;;;6301093;28;20503;-61
2021/08/07 04:07:49;;;;;;;2.30;2.10;;;17.30;99.90;;;;;;6301549;28;20453;-61
2021/08/07 04:10:52;;;;;;;1.90;1.80;;;17.30;99.90;;;;;;6301419;28;20469;-61
2021/08/07 04:13:55;;;;;;;1.97;1.83;;;17.30;99.90;;;;;;6301268;28;20472;-64
2021/08/07 04:17:00;;;;;;;3.33;1.70;;;17.30;99.90;;;;;;6300343;28;20465;-64
2021/08/07 04:20:04;;;;;;;2.37;1.80;;;17.30;99.90;;;;;;6301158;28;20988;-64
2021/08/07 04:23:07;;;;;;;1.90;1.80;;;17.40;99.90;;;;;;6300738;28;20817;-65
2021/08/07 04:26:10;;;;;;;2.40;2.20;;;17.40;99.90;;;;;;6300865;28;20461;-61
2021/08/07 04:29:13;;;;;;;2.50;1.87;;;17.40;99.90;;;;;;6301154;28;20484;-61
2021/08/07 04:32:18;;;;;;;1.97;1.77;;;17.50;99.90;;;;;;6300420;28;20469;-61
2021/08/07 04:35:21;;;;;;;2.77;2.07;;;17.50;99.90;;;;;;6301105;28;20555;-68
2021/08/07 04:38:25;;;;;;;1.93;1.73;;;17.60;99.90;;;;;;6300560;28;20515;-68
2021/08/07 04:41:28;;;;;;;3.30;2.07;;;17.70;99.90;;;;;;6300468;28;20966;-68
2021/08/07 04:44:31;;;;;;;2.03;1.83;;;17.80;99.90;;;;;;6300286;28;20484;-69
2021/08/07 04:47:36;;;;;;;2.40;2.20;;;17.90;99.90;;;;;;6300652;28;20466;-64
2021/08/07 04:50:39;;;;;;;5.80;1.90;;;18.00;99.90;;;;;;6299934;28;20480;-65
2021/08/07 04:53:42;;;;;;;5.10;2.40;;;18.10;99.90;;;;;;6296154;28;20480;-65
2021/08/07 04:56:46;;;;;;;3.10;2.40;;;18.20;99.90;;;;;;6295360;28;20476;-65
2021/08/07 04:59:49;;;;;;;4.47;2.43;;;18.30;99.90;;;;;;6300316;28;20474;-65
2021/08/07 05:02:53;;;;;;;2.27;2.07;;;18.40;99.90;;;;;;6299959;28;20485;-65
2021/08/07 05:05:57;;;;;;;2.43;2.17;;;18.50;99.90;;;;;;6299612;28;20479;-65
2021/08/07 05:09:00;;;;;;;2.23;2.03;;;18.60;99.90;;;;;;6300026;28;20469;-65
2021/08/07 05:12:03;;;;;;;2.40;2.20;;;18.70;99.90;;;;;;6299913;28;20961;-65
2021/08/07 05:15:08;;;;;;;4.07;2.23;;;18.80;99.90;;;;;;6299796;28;20550;-65
2021/08/07 05:18:12;;;;;;;1.97;1.87;;;18.80;99.90;;;;;;6299736;28;20465;-65
2021/08/07 05:21:15;;;;;;;2.20;1.70;;;19.00;99.90;;;;;;6300014;28;20547;-66
2021/08/07 05:24:19;;;;;;;4.00;2.37;;;19.20;99.90;;;;;;6299083;28;20477;-65
2021/08/07 05:27:22;;;;;;;2.83;2.43;;;19.30;99.90;;;;;;6299668;28;20242;-65
2021/08/07 05:30:25;;;;;;;2.60;2.40;;;19.50;99.90;;;;;;6299265;28;20468;-65
2021/08/07 05:33:29;;;;;;;2.77;2.53;;;19.70;99.90;;;;;;6299608;28;20235;-65
2021/08/07 05:36:32;;;;;;;2.33;2.13;;;19.80;99.90;;;;;;6299114;28;20639;-65
2021/08/07 05:39:36;;;;;;;2.23;1.90;;;20.00;99.90;;;;;;6299697;28;20243;-65
2021/08/07 05:42:39;;;;;;;2.40;2.10;;;20.30;99.90;;;;;;6299294;28;20226;-65
2021/08/07 05:45:42;;;;;;;3.37;2.60;;;20.50;99.90;;;;;;6299348;28;20238;-65
2021/08/07 05:48:47;;;;;;;2.47;2.27;;;20.70;99.90;;;;;;6299278;28;20237;-65
2021/08/07 05:51:50;;;;;;;2.83;2.17;;;20.90;99.90;;;;;;6298874;28;20235;-66
2021/08/07 05:54:53;;;;;;;2.93;2.23;;;21.20;99.90;;;;;;6299015;28;20235;-66
2021/08/07 05:57:58;;;;;;;3.70;2.20;;;21.70;99.90;;;;;;6294564;28;20230;-66
2021/08/07 06:01:01;;;;;;;5.63;2.97;;;22.30;99.90;;;;;;6299470;28;20731;-66
2021/08/07 06:04:06;;;;;;;2.43;2.00;;;22.80;99.90;;;;;;6298829;28;20258;-66
2021/08/07 06:07:09;;;;;;;2.33;1.90;;;23.30;99.10;;;;;;6298696;28;20238;-66
2021/08/07 06:10:12;;;;;;;2.33;2.13;;;23.90;97.90;;;;;;6298677;28;20856;-66
2021/08/07 06:13:16;;;;;;;3.93;2.07;;;24.40;96.90;;;;;;6299048;28;20238;-66
2021/08/07 06:16:19;;;;;;;2.63;1.70;;;24.80;96.20;;;;;;6298546;28;20238;-66
2021/08/07 06:19:24;;;;;;;2.00;1.90;;;25.40;95.40;;;;;;6299084;28;20227;-66
2021/08/07 06:22:27;;;;;;;2.20;2.00;;;25.90;94.30;;;;;;6298771;28;20231;-66
2021/08/07 06:25:30;;;;;;;2.30;2.00;;;26.40;92.90;;;;;;6298777;28;20230;-66
2021/08/07 06:28:34;;;;;;;2.90;2.60;;;27.00;90.90;;;;;;6299122;28;20206;-66
2021/08/07 06:31:37;;;;;;;2.33;2.13;;;27.80;88.30;;;;;;6298310;28;20210;-66
2021/08/07 06:34:41;;;;;;;4.53;1.97;;;28.30;83.80;;;;;;6298784;28;20233;-66
2021/08/07 06:37:45;;;;;;;2.73;2.10;;;28.50;80.60;;;;;;6298142;28;20210;-66
2021/08/07 06:40:49;;;;;;;4.13;1.90;;;29.00;77.10;;;;;;6300175;28;20655;-66
2021/08/07 06:43:52;;;;;;;1.97;1.57;;;29.20;76.00;;;;;;6303051;28;20237;-66
2021/08/07 06:46:55;;;;;;;3.93;2.17;;;29.50;73.50;;;;;;6303263;28;20593;-64
2021/08/07 06:49:59;;;;;;;2.10;1.90;;;29.70;71.10;;;;;;6302470;28;20284;-64
2021/08/07 06:53:03;;;;;;;2.47;2.27;;;30.30;69.20;;;;;;6302827;28;20542;-67
2021/08/07 06:56:06;;;;;;;2.63;2.43;;;31.00;66.00;;;;;;6302781;28;20230;-64
2021/08/07 06:59:09;;;;;;;2.40;2.20;;;31.70;62.80;;;;;;6302627;28;20702;-65
2021/08/07 07:02:12;;;;;;;4.93;2.17;;;31.80;60.00;;;;;;6293485;28;20234;-65
2021/08/07 07:05:17;;;;;;;1.77;1.67;;;32.20;59.00;;;;;;6302636;28;20238;-66
2021/08/07 07:08:20;;;;;;;2.60;2.20;;;32.90;56.90;;;;;;6302721;28;20686;-65
2021/08/07 07:11:23;;;;;;;3.15;1.58;;;33.30;55.90;;;;;;6302759;28;20230;-65
2021/08/07 07:14:27;;;;;;;1.80;1.70;;;34.00;54.40;;;;;;6302536;28;20699;-66
2021/08/07 07:17:30;;;;;;;2.75;2.05;;;34.30;53.70;;;;;;6302366;28;20230;-67
2021/08/07 07:20:35;;;;;;;2.35;1.73;;;35.30;50.70;;;;;;6302362;28;20283;-65
2021/08/07 07:23:41;;;;;;;1.75;1.50;;;35.60;50.00;;;;;;6301844;28;20309;-67
2021/08/07 07:26:44;;;;;;;2.10;1.90;;;36.60;48.00;;;;;;6302342;28;20260;-67
2021/08/07 07:29:47;;;;;;;1.60;1.50;;;37.20;46.30;;;;;;6302267;28;20241;-65
2021/08/07 07:32:50;;;;;;;1.85;1.55;;;37.80;44.40;;;;;;6302023;28;20253;-65
2021/08/07 07:35:55;;;;;;;1.95;1.83;;;38.20;43.50;;;;;;6301841;28;20608;-65
2021/08/07 07:38:58;;;;;;;3.10;1.90;;;39.00;42.20;;;;;;6302573;28;20238;-66
2021/08/07 07:42:01;;;;;;;2.45;2.03;;;39.70;40.20;;;;;;6301916;28;20226;-66
2021/08/07 07:45:05;;;;;;;1.95;1.85;;;40.60;39.00;;;;;;6301852;28;20226;-65
2021/08/07 07:48:08;;;;;;;5.95;2.15;;;40.90;38.60;;;;;;6301815;28;20237;-65
2021/08/07 07:51:13;;;;;;;1.45;1.35;;;41.50;37.20;;;;;;6301434;28;20237;-66
2021/08/07 07:54:16;;;;;;;2.03;1.73;;;42.00;35.70;;;;;;6301602;28;20237;-66
2021/08/07 07:57:20;;;;;;;1.80;1.70;;;42.80;34.80;;;;;;6301784;28;20709;-65
2021/08/07 08:00:23;;;;;;;1.90;1.55;;;43.60;33.50;;;;;;6301588;28;20695;-65
2021/08/07 08:03:27;;;;;;;2.13;2.00;;;44.60;32.30;;;;;;6300229;28;20704;-66
2021/08/07 08:06:32;;;;;;;1.60;1.50;;;44.50;31.10;;;;;;6296684;28;20234;-65
2021/08/07 08:09:35;;;;;;;1.95;1.85;;;44.10;31.80;;;;;;6301501;28;20230;-66
2021/08/07 08:12:38;;;;;;;2.03;1.85;;;44.90;31.50;;;;;;6301443;28;20562;-66
2021/08/07 08:15:41;;;;;;;2.53;2.08;;;45.70;30.30;;;;;;6300626;28;20251;-66
2021/08/07 08:18:44;;;;;;;2.20;2.00;;;46.30;29.50;;;;;;6301247;28;20285;-66
2021/08/07 08:21:49;;;;;;;2.10;1.92;;;46.60;29.30;;;;;;6300557;28;20578;-66
2021/08/07 08:24:52;;;;;;;2.75;1.50;;;47.00;29.00;;;;;;6300977;28;20238;-65
2021/08/07 08:27:56;;;;;;;1.77;1.67;;;47.10;28.40;;;;;;6300652;28;20230;-66
2021/08/07 08:30:59;;;;;;;2.15;1.73;;;47.60;27.80;;;;;;6300876;28;20240;-65
2021/08/07 08:34:02;;;;;;;1.58;1.42;;;48.10;27.50;;;;;;6300793;28;20718;-65
2021/08/07 08:37:08;;;;;;;2.17;1.98;;;46.60;27.90;;;;;;6300248;28;20239;-65
2021/08/07 08:40:11;;;;;;;2.13;1.92;;;45.40;28.70;;;;;;6301061;28;20237;-66
2021/08/07 08:43:16;;;;;;;2.08;1.92;;;44.90;29.60;;;;;;6300470;28;20230;-67
2021/08/07 08:46:21;;;;;;;2.20;2.00;;;44.90;29.80;;;;;;6300228;28;20241;-66
2021/08/07 08:49:25;;;;;;;2.40;2.20;;;44.30;30.10;;;;;;6300067;28;20655;-67
2021/08/07 08:52:32;;;;;;;3.47;1.83;;;43.40;31.10;;;;;;6300281;28;20227;-64
2021/08/07 08:55:37;;;;;;;2.47;1.80;;;42.30;32.10;;;;;;6300380;28;20230;-65
2021/08/07 08:58:41;;;;;;;2.67;2.47;;;40.30;35.00;;;;;;6300610;28;20262;-65
2021/08/07 09:01:44;;;;;;;2.20;1.80;;;38.40;37.60;;;;;;6299831;28;20530;-65
2021/08/07 09:04:50;;;;;;;2.75;2.55;;;37.40;37.90;;;;;;6299547;28;20564;-65
2021/08/07 09:07:54;;;;;;;2.53;2.33;;;36.80;40.00;;;;;;6299755;28;20237;-66
2021/08/07 09:11:19;;;;;;;2.25;1.67;;;35.90;40.40;;;;;;6300242;28;20226;-65
2021/08/07 09:14:25;;;;;;;2.22;2.08;;;35.20;41.70;;;;;;6299252;28;20249;-66
2021/08/07 09:17:29;;;;;;;1.95;1.85;;;34.60;43.00;;;;;;6299723;28;20690;-65
2021/08/07 09:20:32;;;;;;;2.35;2.15;;;33.90;43.20;;;;;;6299422;28;20238;-65
2021/08/07 09:23:37;;;;;;;2.95;2.63;;;32.30;46.50;;;;;;6299936;28;20360;-65
2021/08/07 09:26:43;;;;;;;2.72;2.53;;;31.60;48.10;;;;;;6299211;28;20679;-65
2021/08/07 09:29:47;;;;;;;2.40;2.20;;;31.00;49.70;;;;;;6299686;28;20237;-65
2021/08/07 09:32:53;;;;;;;2.90;2.63;;;30.50;51.60;;;;;;6299153;28;20237;-65
2021/08/07 09:35:56;;;;;;;3.20;2.37;;;30.30;52.30;;;;;;6299309;28;20226;-65
2021/08/07 09:39:01;;;;;;;5.27;2.57;;;30.00;53.70;;;;;;6299347;28;20283;-65
2021/08/07 09:42:05;;;;;;;3.47;2.50;;;29.80;54.40;;;;;;6299436;28;20230;-65
2021/08/07 09:45:10;;;;;;;2.40;2.20;;;29.80;55.00;;;;;;6299709;28;20249;-65
2021/08/07 09:48:16;;;;;;;2.70;2.50;;;29.70;55.00;;;;;;6298786;28;20604;-65
2021/08/07 09:51:25;;;;;;;2.57;2.37;;;29.50;56.10;;;;;;6298903;28;20686;-65
2021/08/07 09:54:37;;;;;;;2.90;2.20;;;29.40;56.60;;;;;;6298675;28;20234;-65
2021/08/07 09:57:41;;;;;;;3.27;2.97;;;29.40;56.20;;;;;;6298979;28;20226;-65
2021/08/07 10:00:45;;;;;;;2.87;2.63;;;29.20;57.00;;;;;;6299244;28;20245;-65
2021/08/07 10:04:02;;;;;;;3.10;2.90;;;29.10;56.80;;;;;;6298944;28;20230;-65
2021/08/07 10:07:10;;;;;;;3.67;2.77;;;29.30;57.40;;;;;;6298716;28;20675;-65
2021/08/07 10:10:22;;;;;;;2.90;2.70;;;29.30;57.50;;;;;;6298975;28;20572;-65
2021/08/07 10:13:26;;;;;;;3.53;3.23;;;29.40;58.20;;;;;;6299084;28;20234;-65
2021/08/07 10:16:32;;;;;;;3.17;2.77;;;29.40;58.60;;;;;;6301401;28;20249;-65
2021/08/07 10:19:36;;;;;;;3.30;2.80;;;29.50;58.70;;;;;;6304266;28;20189;-65
2021/08/07 10:22:40;;;;;;;3.30;3.00;;;29.70;58.70;;;;;;6303942;28;20206;-65
2021/08/07 10:25:47;;;;;;;2.97;2.67;;;29.60;58.60;;;;;;6303361;28;20226;-65
2021/08/07 10:28:54;;;;;;;3.97;3.60;;;29.60;58.50;;;;;;6303825;28;20229;-65
2021/08/07 10:31:58;;;;;;;3.67;3.37;;;29.60;59.00;;;;;;6303743;28;20237;-65
2021/08/07 10:35:03;;;;;;;3.30;2.93;;;29.70;59.40;;;;;;6303531;28;20241;-65
2021/08/07 10:38:06;;;;;;;3.57;3.27;;;29.70;59.90;;;;;;6303355;28;20295;-65
2021/08/07 10:41:11;;;;;;;3.13;2.93;;;29.50;60.00;;;;;;6303822;28;20230;-65
2021/08/07 10:44:14;;;;;;;4.23;2.93;;;29.40;61.30;;;;;;6303360;28;20244;-65
2021/08/07 10:47:36;;;;;;;3.40;3.10;;;29.60;61.10;;;;;;6303305;28;20230;-64
2021/08/07 10:50:40;;;;;;;4.00;3.40;;;29.80;60.40;;;;;;6303064;28;20222;-65
2021/08/07 10:53:43;;;;;;;3.63;3.43;;;29.70;61.10;;;;;;6303140;28;20234;-65
2021/08/07 10:56:47;;;;;;;3.70;3.50;;;29.70;61.20;;;;;;6302946;28;20229;-65
2021/08/07 10:59:50;;;;;;;3.43;3.10;;;29.80;61.20;;;;;;6303212;28;20230;-66
2021/08/07 11:03:11;;;;;;;4.43;3.63;;;29.70;61.70;;;;;;6302839;28;20259;-65
2021/08/07 11:06:15;;;;;;;4.03;3.63;;;29.90;61.90;;;;;;6303268;28;20283;-66
2021/08/07 11:09:26;;;;;;;3.87;3.47;;;30.10;62.30;;;;;;6302685;28;20312;-66
2021/08/07 11:12:31;;;;;;;5.30;4.10;;;30.20;62.20;;;;;;6302963;28;20576;-66
2021/08/07 11:15:35;;;;;;;4.27;3.97;;;30.10;61.50;;;;;;6302502;28;20299;-66
2021/08/07 11:18:38;;;;;;;4.00;3.70;;;30.20;62.50;;;;;;6302841;28;20734;-66
2021/08/07 11:21:51;;;;;;;3.80;3.47;;;30.30;63.50;;;;;;6302262;28;20237;-66
2021/08/07 11:24:56;;;;;;;6.50;3.93;;;30.40;61.80;;;;;;6302248;28;20298;-66
2021/08/07 11:28:06;;;;;;;3.93;3.63;;;30.40;62.90;;;;;;6301586;28;20234;-66
2021/08/07 11:31:22;;;;;;;3.90;3.60;;;30.10;63.00;;;;;;6302529;28;20230;-65
2021/08/07 11:34:26;;;;;;;3.40;3.10;;;29.90;64.60;;;;;;6301870;28;20683;-65
2021/08/07 11:37:29;;;;;;;4.77;3.63;;;30.10;64.40;;;;;;6302331;28;20222;-67
2021/08/07 11:40:38;;;;;;;4.20;3.80;;;30.20;63.90;;;;;;6301934;28;20271;-65
2021/08/07 11:43:51;;;;;;;4.07;3.70;;;30.30;64.00;;;;;;6302336;28;20223;-67
2021/08/07 11:47:00;;;;;;;4.70;3.73;;;30.40;63.10;;;;;;6301627;28;20961;-68
2021/08/07 11:50:06;;;;;;;5.50;3.87;;;30.40;63.90;;;;;;6302145;28;20244;-69
2021/08/07 11:53:15;;;;;;;3.90;3.50;;;30.30;64.60;;;;;;6301317;28;20233;-62
2021/08/07 11:56:19;;;;;;;4.37;3.90;;;30.20;65.00;;;;;;6302307;28;20234;-69
2021/08/07 11:59:28;;;;;;;4.40;4.00;;;30.50;65.30;;;;;;6301712;28;20222;-69
2021/08/07 12:02:31;;;;;;;3.70;3.40;;;30.20;66.00;;;;;;6301855;28;20329;-68
2021/08/07 12:05:36;;;;;;;6.10;3.83;;;30.40;65.60;;;;;;6301602;28;20391;-68
2021/08/07 12:08:40;;;;;;;3.67;3.37;;;30.40;65.10;;;;;;6301570;28;20245;-67
2021/08/07 12:11:43;;;;;;;5.13;4.33;;;30.50;66.00;;;;;;6301280;28;20241;-68
2021/08/07 12:14:49;;;;;;;4.30;4.00;;;30.50;65.80;;;;;;6301417;28;20245;-69
2021/08/07 12:17:52;;;;;;;4.47;4.07;;;30.30;66.80;;;;;;6296524;28;20317;-67
2021/08/07 12:20:56;;;;;;;4.43;4.10;;;30.20;66.90;;;;;;6301147;28;20565;-67
2021/08/07 12:24:01;;;;;;;4.93;3.90;;;30.10;68.70;;;;;;6301252;28;20260;-70
2021/08/07 12:27:05;;;;;;;4.53;4.20;;;30.30;67.90;;;;;;6301020;28;20226;-69
2021/08/07 12:30:13;;;;;;;5.10;4.70;;;30.70;67.60;;;;;;6301473;28;20606;-69
2021/08/07 12:33:18;;;;;;;4.63;4.33;;;30.70;67.20;;;;;;6300873;28;20247;-68
2021/08/07 12:36:21;;;;;;;4.30;3.90;;;31.00;66.50;;;;;;6301055;28;20245;-62
2021/08/07 12:39:25;;;;;;;4.78;4.20;;;31.00;66.50;;;;;;6300025;28;20234;-62
2021/08/07 12:42:30;;;;;;;4.00;3.70;;;31.10;66.80;;;;;;6300894;28;20256;-61
2021/08/07 12:45:35;;;;;;;4.78;4.38;;;31.30;65.80;;;;;;6300695;28;20352;-65
2021/08/07 12:48:49;;;;;;;5.10;4.40;;;31.10;64.30;;;;;;6300517;28;20226;-65
2021/08/07 12:52:02;;;;;;;4.50;4.00;;;31.00;65.10;;;;;;6300138;28;20226;-67
2021/08/07 12:55:08;;;;;;;5.13;4.60;;;31.00;64.70;;;;;;6300412;28;20231;-68
2021/08/07 12:58:13;;;;;;;4.95;4.05;;;31.30;65.40;;;;;;6300133;28;20229;-69
2021/08/07 13:01:18;;;;;;;4.68;4.22;;;31.20;62.40;;;;;;6300316;28;20237;-67
2021/08/07 13:04:21;;;;;;;5.10;3.67;;;31.50;62.80;;;;;;6299714;28;20319;-70
2021/08/07 13:07:31;;;;;;;5.00;3.95;;;31.80;59.20;;;;;;6300171;28;20226;-70
2021/08/07 13:10:35;;;;;;;4.60;4.10;;;31.60;59.20;;;;;;6299679;28;20221;-68
2021/08/07 13:13:40;;;;;;;4.05;3.78;;;31.20;60.10;;;;;;6300209;28;20241;-65
2021/08/07 13:16:46;;;;;;;5.50;5.05;;;31.50;60.40;;;;;;6299585;28;20816;-65
2021/08/07 13:19:50;;;;;;;4.15;3.63;;;31.70;59.20;;;;;;6299609;28;20226;-65
2021/08/07 13:22:59;;;;;;;4.40;4.00;;;31.90;59.20;;;;;;6299415;28;20233;-65
2021/08/07 13:26:05;;;;;;;5.13;4.72;;;32.10;58.00;;;;;;6300139;28;20222;-65
2021/08/07 13:29:17;;;;;;;4.63;3.45;;;32.00;57.90;;;;;;6299205;28;20230;-62
2021/08/07 13:32:24;;;;;;;4.35;3.70;;;31.90;58.00;;;;;;6300089;28;20238;-65
2021/08/07 13:35:27;;;;;;;3.63;3.33;;;31.50;57.10;;;;;;6299494;28;20230;-66
2021/08/07 13:38:32;;;;;;;5.95;3.92;;;31.50;57.60;;;;;;6299586;28;20249;-65
2021/08/07 13:41:40;;;;;;;5.82;3.65;;;31.60;57.50;;;;;;6299167;28;20242;-65
2021/08/07 13:44:44;;;;;;;4.78;3.85;;;31.70;57.20;;;;;;6299461;28;20276;-65
2021/08/07 13:47:48;;;;;;;4.95;3.63;;;31.60;56.20;;;;;;6299455;28;20249;-65
2021/08/07 13:50:52;;;;;;;4.55;3.90;;;31.60;56.20;;;;;;6298831;28;20662;-65
2021/08/07 13:53:55;;;;;;;5.20;3.58;;;31.60;56.80;;;;;;6299152;28;20244;-62
2021/08/07 13:57:00;;;;;;;4.35;3.50;;;31.40;57.30;;;;;;6299149;28;20717;-68
2021/08/07 14:00:05;;;;;;;5.57;4.18;;;31.30;56.70;;;;;;6299055;28;20226;-69
2021/08/07 14:03:09;;;;;;;6.00;3.67;;;31.20;57.20;;;;;;6298881;28;20687;-69
2021/08/07 14:06:14;;;;;;;4.90;3.67;;;31.10;57.70;;;;;;6298954;28;20226;-68
2021/08/07 14:09:18;;;;;;;4.18;3.88;;;30.80;55.80;;;;;;6298722;28;20227;-67
2021/08/07 14:12:21;;;;;;;4.30;3.40;;;30.80;55.80;;;;;;6299043;28;20733;-67
2021/08/07 14:15:24;;;;;;;3.80;3.50;;;30.70;56.20;;;;;;6298601;28;20252;-67
2021/08/07 14:18:29;;;;;;;4.30;3.90;;;30.50;57.20;;;;;;6299092;28;20236;-61
2021/08/07 14:21:35;;;;;;;4.43;3.80;;;30.30;57.10;;;;;;6298440;28;20702;-61
2021/08/07 14:24:38;;;;;;;4.53;4.13;;;30.20;57.30;;;;;;6299066;28;20231;-63
2021/08/07 14:27:41;;;;;;;4.27;3.50;;;30.10;58.00;;;;;;6298514;28;20234;-61
2021/08/07 14:30:44;;;;;;;3.47;3.17;;;30.10;57.80;;;;;;6299079;28;20234;-61
2021/08/07 14:33:49;;;;;;;4.33;3.93;;;30.00;58.40;;;;;;6298131;28;20241;-62
2021/08/07 14:36:52;;;;;;;4.73;4.33;;;29.90;58.80;;;;;;6298568;28;20234;-62
2021/08/07 14:39:55;;;;;;;4.70;4.13;;;29.80;58.90;;;;;;6298710;28;20233;-61
2021/08/07 14:42:58;;;;;;;5.10;3.83;;;29.90;58.90;;;;;;6298657;28;20690;-61
2021/08/07 14:46:02;;;;;;;4.50;3.77;;;29.90;58.30;;;;;;6298698;28;20230;-61
2021/08/07 14:49:06;;;;;;;4.10;3.70;;;29.80;58.60;;;;;;6298152;28;20226;-61
2021/08/07 14:52:10;;;;;;;4.00;3.60;;;29.80;58.40;;;;;;6298388;28;20230;-61
2021/08/07 14:55:13;;;;;;;4.60;3.97;;;29.60;58.10;;;;;;6298217;28;20230;-63
2021/08/07 14:58:16;;;;;;;4.13;3.73;;;29.50;58.00;;;;;;6298383;28;20226;-62
2021/08/07 15:01:20;;;;;;;4.77;3.43;;;29.30;58.60;;;;;;6299012;28;20229;-61
2021/08/07 15:04:25;;;;;;;3.73;3.33;;;29.30;59.30;;;;;;6303237;28;20230;-61
2021/08/07 15:07:28;;;;;;;3.80;3.50;;;29.50;58.90;;;;;;6302371;28;20233;-65
2021/08/07 15:10:31;;;;;;;4.63;4.17;;;29.60;58.30;;;;;;6302429;28;20233;-65
2021/08/07 15:13:35;;;;;;;5.17;3.30;;;29.80;57.80;;;;;;6302341;28;20688;-65
2021/08/07 15:16:38;;;;;;;3.90;3.60;;;29.80;58.20;;;;;;6302630;28;20570;-65
2021/08/07 15:19:43;;;;;;;3.63;3.40;;;29.80;58.20;;;;;;6302885;28;20202;-65
2021/08/07 15:22:46;;;;;;;4.70;3.50;;;29.60;58.30;;;;;;6302762;28;20198;-65
2021/08/07 15:25:50;;;;;;;4.27;3.87;;;29.60;59.00;;;;;;6302595;28;20430;-65
2021/08/07 15:28:53;;;;;;;3.97;3.67;;;29.50;59.50;;;;;;6292897;28;20230;-65
2021/08/07 15:31:57;;;;;;;5.63;4.50;;;29.40;59.80;;;;;;6302658;28;20230;-65
2021/08/07 15:35:05;;;;;;;4.20;3.80;;;29.20;60.10;;;;;;6302500;28;20237;-65
2021/08/07 15:38:08;;;;;;;4.83;4.43;;;29.20;60.80;;;;;;6302768;28;20233;-65
2021/08/07 15:41:12;;;;;;;4.93;3.90;;;29.20;61.30;;;;;;6301922;28;20226;-65
2021/08/07 15:44:15;;;;;;;6.00;3.67;;;29.00;61.70;;;;;;6302361;28;20234;-65
2021/08/07 15:47:19;;;;;;;4.30;3.90;;;29.10;61.20;;;;;;6301899;28;20237;-65
2021/08/07 15:50:24;;;;;;;4.30;3.87;;;29.00;61.30;;;;;;6302214;28;20230;-65
2021/08/07 15:53:27;;;;;;;4.80;4.20;;;29.00;61.40;;;;;;6301567;28;20245;-66
2021/08/07 15:56:30;;;;;;;4.27;3.50;;;29.10;61.80;;;;;;6301982;28;20226;-65
2021/08/07 15:59:33;;;;;;;5.03;3.43;;;29.10;61.60;;;;;;6301693;28;20233;-66
2021/08/07 16:02:37;;;;;;;4.77;3.60;;;29.30;60.80;;;;;;6301817;28;20675;-65